PWSweather.com
Personal Weather Stations
Station Observations
KPAEXPOR2
Wellington Estates, Export, PA 15632

Wellington EstatesExport, PA 15632

Lat: 40.446, Lon: -79.592

Elevation: 1286

Station Type: PWS1000-TD

http://www.westmorelandweather.com

Latest ConditionsUpdated 4:45:02 PM EDT Sunday, Mar 29, 2015
Currently Today's Max Today's Min Today's Average
Temperature 41.2°F5.1°C 41.9°F5.5°C 13.6°F-10.2°C 24.1°F-4.4°C
Dew Point -2.9°F-19.4°C 6.3°F-14.3°C -7.6°F-22.0°C 0.5°F-17.5°C
Winds 11.4 mph SSW18.3 kmh SSW 11.4 mph SSW18.3 kmh SSW - 4.0 mph 6.4 kmh
Wind Gusts 15.9 mph25.6 kmh 16.8 mph27.0 kmh - -
Humidity 15% 61% 15% 40%
Pressure 30.14 in1020.7 mb 30.37 in1028.4 mb 30.14 in1020.7 mb -
Hour Temp Dew Point Humidity Winds Wind Gusts Pressure Precip Precip Rate Daily Precip Total
04:45 PM 41.2°F5.1°C -2.9°F-19.4°C 15% 11.4 mph SSW18.3 kmh SSW 15.9 mph25.6 kmh 30.14 in1020.7 mb 0.00 in0.0 mm 0.00 in0.0 mm 0.00 in0.0 mm
04:30 PM 41.7°F5.4°C -2.5°F-19.2°C 15% 9.3 mph S15.0 kmh S 10.7 mph17.2 kmh 30.16 in1021.3 mb 0.00 in0.0 mm 0.00 in0.0 mm 0.00 in0.0 mm
04:15 PM 41.9°F5.5°C -2.3°F-19.1°C 15% 8.6 mph SSW13.8 kmh SSW 13.0 mph20.9 kmh 30.19 in1022.4 mb 0.00 in0.0 mm 0.00 in0.0 mm 0.00 in0.0 mm
04:00 PM 41.3°F5.2°C -2.8°F-19.3°C 15% 11.0 mph S17.7 kmh S 16.8 mph27.0 kmh 30.20 in1022.7 mb 0.00 in0.0 mm 0.00 in0.0 mm 0.00 in0.0 mm
03:45 PM 41.5°F5.3°C -2.6°F-19.2°C 15% 8.3 mph SSW13.4 kmh SSW 12.1 mph19.5 kmh 30.21 in1023.0 mb 0.00 in0.0 mm 0.00 in0.0 mm 0.00 in0.0 mm
03:30 PM 41.3°F5.2°C -2.8°F-19.3°C 15% 8.3 mph SW13.4 kmh SW 11.4 mph18.3 kmh 30.23 in1023.7 mb 0.00 in0.0 mm 0.00 in0.0 mm 0.00 in0.0 mm
03:15 PM 41.2°F5.1°C -2.9°F-19.4°C 15% 9.8 mph S15.8 kmh S 13.6 mph21.9 kmh 30.24 in1024.0 mb 0.00 in0.0 mm 0.00 in0.0 mm 0.00 in0.0 mm
03:00 PM 40.8°F4.9°C -3.2°F-19.6°C 15% 8.4 mph SSW13.5 kmh SSW 14.5 mph23.3 kmh 30.25 in1024.4 mb 0.00 in0.0 mm 0.00 in0.0 mm 0.00 in0.0 mm
02:45 PM 39.9°F4.4°C -3.9°F-19.9°C 15% 10.3 mph S16.6 kmh S 15.2 mph24.5 kmh 30.25 in1024.4 mb 0.00 in0.0 mm 0.00 in0.0 mm 0.00 in0.0 mm
02:30 PM 39.4°F4.1°C -4.4°F-20.2°C 15% 7.9 mph S12.7 kmh S 10.7 mph17.2 kmh 30.26 in1024.7 mb 0.00 in0.0 mm 0.00 in0.0 mm 0.00 in0.0 mm
02:15 PM 38.6°F3.7°C -5.0°F-20.6°C 15% 8.9 mph S14.3 kmh S 13.0 mph20.9 kmh 30.27 in1025.1 mb 0.00 in0.0 mm 0.00 in0.0 mm 0.00 in0.0 mm
02:00 PM 37.2°F2.9°C -3.5°F-19.7°C 17% 8.8 mph S14.2 kmh S 13.6 mph21.9 kmh 30.28 in1025.4 mb 0.00 in0.0 mm 0.00 in0.0 mm 0.00 in0.0 mm
01:45 PM 37.6°F3.1°C -5.8°F-21.0°C 15% 8.8 mph S14.2 kmh S 11.4 mph18.3 kmh 30.29 in1025.7 mb 0.00 in0.0 mm 0.00 in0.0 mm 0.00 in0.0 mm
01:30 PM 36.1°F2.3°C -5.7°F-20.9°C 16% 7.7 mph W12.4 kmh W 9.8 mph15.8 kmh 30.30 in1026.1 mb 0.00 in0.0 mm 0.00 in0.0 mm 0.00 in0.0 mm
01:15 PM 36.7°F2.6°C -6.6°F-21.4°C 15% 7.8 mph S12.6 kmh S 11.4 mph18.3 kmh 30.31 in1026.4 mb 0.00 in0.0 mm 0.00 in0.0 mm 0.00 in0.0 mm
01:00 PM 35.4°F1.9°C -7.6°F-22.0°C 15% 7.0 mph SSW11.3 kmh SSW 13.0 mph20.9 kmh 30.32 in1026.8 mb 0.00 in0.0 mm 0.00 in0.0 mm 0.00 in0.0 mm
12:45 PM 35.0°F1.7°C -5.3°F-20.7°C 17% 7.3 mph SSW11.7 kmh SSW 15.2 mph24.5 kmh 30.32 in1026.8 mb 0.00 in0.0 mm 0.00 in0.0 mm 0.00 in0.0 mm
12:30 PM 34.9°F1.6°C -1.1°F-18.4°C 21% 8.1 mph S13.0 kmh S 11.4 mph18.3 kmh 30.32 in1026.8 mb 0.00 in0.0 mm 0.00 in0.0 mm 0.00 in0.0 mm
12:15 PM 32.7°F0.4°C 0.8°F-17.3°C 25% 8.0 mph S12.9 kmh S 12.1 mph19.5 kmh 30.32 in1026.8 mb 0.00 in0.0 mm 0.00 in0.0 mm 0.00 in0.0 mm
12:00 PM 32.9°F0.5°C -0.8°F-18.2°C 23% 7.5 mph S12.1 kmh S 11.4 mph18.3 kmh 30.33 in1027.1 mb 0.00 in0.0 mm 0.00 in0.0 mm 0.00 in0.0 mm
11:45 AM 32.3°F0.2°C -3.2°F-19.6°C 21% 7.4 mph S11.9 kmh S 10.7 mph17.2 kmh 30.34 in1027.4 mb 0.00 in0.0 mm 0.00 in0.0 mm 0.00 in0.0 mm
11:30 AM 30.7°F-0.7°C 0.7°F-17.4°C 27% 8.7 mph S14.0 kmh S 13.0 mph20.9 kmh 30.35 in1027.8 mb 0.00 in0.0 mm 0.00 in0.0 mm 0.00 in0.0 mm
11:15 AM 30.9°F-0.6°C 1.7°F-16.8°C 28% 7.1 mph S11.4 kmh S 9.8 mph15.8 kmh 30.35 in1027.8 mb 0.00 in0.0 mm 0.00 in0.0 mm 0.00 in0.0 mm
11:00 AM 29.8°F-1.2°C 2.2°F-16.6°C 30% 6.6 mph SW10.6 kmh SW 10.7 mph17.2 kmh 30.35 in1027.8 mb 0.00 in0.0 mm 0.00 in0.0 mm 0.00 in0.0 mm
10:45 AM 29.8°F-1.2°C 2.9°F-16.2°C 31% 6.5 mph SW10.5 kmh SW 9.2 mph14.8 kmh 30.36 in1028.1 mb 0.00 in0.0 mm 0.00 in0.0 mm 0.00 in0.0 mm
10:30 AM 28.0°F-2.2°C 2.7°F-16.3°C 33% 9.0 mph SSW14.5 kmh SSW 13.0 mph20.9 kmh 30.37 in1028.4 mb 0.00 in0.0 mm 0.00 in0.0 mm 0.00 in0.0 mm
10:15 AM 27.7°F-2.4°C 4.8°F-15.1°C 37% 6.6 mph SSW10.6 kmh SSW 9.2 mph14.8 kmh 30.37 in1028.4 mb 0.00 in0.0 mm 0.00 in0.0 mm 0.00 in0.0 mm
10:00 AM 26.4°F-3.1°C 5.9°F-14.5°C 41% 6.0 mph S9.7 kmh S 8.3 mph13.4 kmh 30.37 in1028.4 mb 0.00 in0.0 mm 0.00 in0.0 mm 0.00 in0.0 mm
09:45 AM 25.0°F-3.9°C 6.2°F-14.3°C 44% 6.8 mph S10.9 kmh S 9.8 mph15.8 kmh 30.37 in1028.4 mb 0.00 in0.0 mm 0.00 in0.0 mm 0.00 in0.0 mm
09:30 AM 23.5°F-4.7°C 6.3°F-14.3°C 47% 5.0 mph S8.0 kmh S 6.0 mph9.7 kmh 30.37 in1028.4 mb 0.00 in0.0 mm 0.00 in0.0 mm 0.00 in0.0 mm
09:15 AM 22.1°F-5.5°C 6.3°F-14.3°C 50% 4.0 mph S6.4 kmh S 6.0 mph9.7 kmh 30.37 in1028.4 mb 0.00 in0.0 mm 0.00 in0.0 mm 0.00 in0.0 mm
09:00 AM 20.6°F-6.3°C 5.9°F-14.5°C 52% 4.7 mph S7.6 kmh S 6.0 mph9.7 kmh 30.37 in1028.4 mb 0.00 in0.0 mm 0.00 in0.0 mm 0.00 in0.0 mm
08:45 AM 18.8°F-7.3°C 5.0°F-15.0°C 54% 4.6 mph S7.4 kmh S 5.4 mph8.7 kmh 30.37 in1028.4 mb 0.00 in0.0 mm 0.00 in0.0 mm 0.00 in0.0 mm
08:30 AM 17.6°F-8.0°C 4.6°F-15.2°C 56% 3.6 mph S5.8 kmh S 4.5 mph7.2 kmh 30.37 in1028.4 mb 0.00 in0.0 mm 0.00 in0.0 mm 0.00 in0.0 mm
08:15 AM 16.0°F-8.9°C 4.2°F-15.4°C 59% 4.5 mph S7.2 kmh S 6.0 mph9.7 kmh 30.37 in1028.4 mb 0.00 in0.0 mm 0.00 in0.0 mm 0.00 in0.0 mm
08:00 AM 14.7°F-9.6°C 3.4°F-15.9°C 60% 3.4 mph S5.5 kmh S 4.5 mph7.2 kmh 30.36 in1028.1 mb 0.00 in0.0 mm 0.00 in0.0 mm 0.00 in0.0 mm
07:45 AM 14.2°F-9.9°C 3.3°F-15.9°C 61% 1.0 mph SSW1.6 kmh SSW 3.1 mph5.0 kmh 30.36 in1028.1 mb 0.00 in0.0 mm 0.00 in0.0 mm 0.00 in0.0 mm
07:30 AM 13.8°F-10.1°C 2.6°F-16.3°C 60% Calm Calm -- 30.35 in1027.8 mb 0.00 in0.0 mm 0.00 in0.0 mm 0.00 in0.0 mm
07:15 AM 13.6°F-10.2°C 2.4°F-16.4°C 60% Calm Calm -- 30.34 in1027.4 mb 0.00 in0.0 mm 0.00 in0.0 mm 0.00 in0.0 mm
07:00 AM 14.0°F-10.0°C 2.7°F-16.3°C 60% Calm Calm -- 30.34 in1027.4 mb 0.00 in0.0 mm 0.00 in0.0 mm 0.00 in0.0 mm
06:45 AM 14.0°F-10.0°C 2.7°F-16.3°C 60% Calm Calm -- 30.34 in1027.4 mb 0.00 in0.0 mm 0.00 in0.0 mm 0.00 in0.0 mm
06:30 AM 13.8°F-10.1°C 2.6°F-16.3°C 60% 0.6 mph W1.0 kmh W 0.7 mph1.1 kmh 30.33 in1027.1 mb 0.00 in0.0 mm 0.00 in0.0 mm 0.00 in0.0 mm
06:15 AM 13.8°F-10.1°C 2.6°F-16.3°C 60% Calm Calm 0.7 mph1.1 kmh 30.32 in1026.8 mb 0.00 in0.0 mm 0.00 in0.0 mm 0.00 in0.0 mm
06:00 AM 13.6°F-10.2°C 2.0°F-16.7°C 59% Calm Calm -- 30.32 in1026.8 mb 0.00 in0.0 mm 0.00 in0.0 mm 0.00 in0.0 mm
05:45 AM 14.0°F-10.0°C 2.0°F-16.7°C 58% Calm Calm -- 30.32 in1026.8 mb 0.00 in0.0 mm 0.00 in0.0 mm 0.00 in0.0 mm
05:30 AM 14.2°F-9.9°C 2.2°F-16.6°C 58% 0.1 mph N0.2 kmh N 0.7 mph1.1 kmh 30.32 in1026.8 mb 0.00 in0.0 mm 0.00 in0.0 mm 0.00 in0.0 mm
05:15 AM 14.2°F-9.9°C 2.2°F-16.6°C 58% 0.1 mph N0.2 kmh N 0.7 mph1.1 kmh 30.32 in1026.8 mb 0.00 in0.0 mm 0.00 in0.0 mm 0.00 in0.0 mm
05:00 AM 14.2°F-9.9°C 1.8°F-16.8°C 57% Calm Calm 0.7 mph1.1 kmh 30.32 in1026.8 mb 0.00 in0.0 mm 0.00 in0.0 mm 0.00 in0.0 mm
04:45 AM 14.2°F-9.9°C 1.4°F-17.0°C 56% 0.1 mph N0.2 kmh N 0.7 mph1.1 kmh 30.32 in1026.8 mb 0.00 in0.0 mm 0.00 in0.0 mm 0.00 in0.0 mm
04:30 AM 14.3°F-9.8°C 1.2°F-17.1°C 55% 0.2 mph N0.3 kmh N 0.7 mph1.1 kmh 30.31 in1026.4 mb 0.00 in0.0 mm 0.00 in0.0 mm 0.00 in0.0 mm
04:15 AM 14.5°F-9.7°C 1.4°F-17.0°C 55% 0.3 mph NNE0.5 kmh NNE 0.7 mph1.1 kmh 30.31 in1026.4 mb 0.00 in0.0 mm 0.00 in0.0 mm 0.00 in0.0 mm
04:00 AM 14.9°F-9.5°C 1.7°F-16.8°C 55% 0.6 mph SSW1.0 kmh SSW 1.6 mph2.6 kmh 30.32 in1026.8 mb 0.00 in0.0 mm 0.00 in0.0 mm 0.00 in0.0 mm
03:45 AM 15.1°F-9.4°C 1.5°F-16.9°C 54% 0.3 mph N0.5 kmh N 0.7 mph1.1 kmh 30.32 in1026.8 mb 0.00 in0.0 mm 0.00 in0.0 mm 0.00 in0.0 mm
03:30 AM 15.1°F-9.4°C 1.1°F-17.2°C 53% 0.2 mph N0.3 kmh N 0.7 mph1.1 kmh 30.31 in1026.4 mb 0.00 in0.0 mm 0.00 in0.0 mm 0.00 in0.0 mm
03:15 AM 15.2°F-9.3°C 0.8°F-17.3°C 52% 0.7 mph NNE1.1 kmh NNE 1.6 mph2.6 kmh 30.31 in1026.4 mb 0.00 in0.0 mm 0.00 in0.0 mm 0.00 in0.0 mm
03:00 AM 15.4°F-9.2°C 1.0°F-17.2°C 52% 0.4 mph N0.6 kmh N 0.7 mph1.1 kmh 30.32 in1026.8 mb 0.00 in0.0 mm 0.00 in0.0 mm 0.00 in0.0 mm
02:45 AM 15.6°F-9.1°C 1.2°F-17.1°C 52% 0.6 mph N1.0 kmh N 1.6 mph2.6 kmh 30.31 in1026.4 mb 0.00 in0.0 mm 0.00 in0.0 mm 0.00 in0.0 mm
02:30 AM 15.6°F-9.1°C 0.8°F-17.3°C 51% Calm Calm -- 30.31 in1026.4 mb 0.00 in0.0 mm 0.00 in0.0 mm 0.00 in0.0 mm
02:15 AM 15.6°F-9.1°C 0.3°F-17.6°C 50% Calm Calm -- 30.32 in1026.8 mb 0.00 in0.0 mm 0.00 in0.0 mm 0.00 in0.0 mm
02:00 AM 15.6°F-9.1°C 0.3°F-17.6°C 50% Calm Calm -- 30.31 in1026.4 mb 0.00 in0.0 mm 0.00 in0.0 mm 0.00 in0.0 mm
01:45 AM 15.8°F-9.0°C 0.1°F-17.7°C 49% Calm Calm -- 30.30 in1026.1 mb 0.00 in0.0 mm 0.00 in0.0 mm 0.00 in0.0 mm
01:30 AM 16.0°F-8.9°C 0.3°F-17.6°C 49% Calm Calm -- 30.30 in1026.1 mb 0.00 in0.0 mm 0.00 in0.0 mm 0.00 in0.0 mm
01:15 AM 16.1°F-8.8°C 0.4°F-17.6°C 49% Calm Calm -- 30.30 in1026.1 mb 0.00 in0.0 mm 0.00 in0.0 mm 0.00 in0.0 mm
01:00 AM 16.5°F-8.6°C 0.3°F-17.6°C 48% Calm Calm -- 30.30 in1026.1 mb 0.00 in0.0 mm 0.00 in0.0 mm 0.00 in0.0 mm
12:45 AM 16.5°F-8.6°C 0.3°F-17.6°C 48% Calm Calm -- 30.30 in1026.1 mb 0.00 in0.0 mm 0.00 in0.0 mm 0.00 in0.0 mm
12:30 AM 16.9°F-8.4°C 0.2°F-17.7°C 47% Calm Calm -- 30.30 in1026.1 mb 0.00 in0.0 mm 0.00 in0.0 mm 0.00 in0.0 mm
12:15 AM 17.0°F-8.3°C 0.4°F-17.6°C 47% Calm Calm -- 30.29 in1025.7 mb 0.00 in0.0 mm 0.00 in0.0 mm 0.00 in0.0 mm
12:00 AM 17.4°F-8.1°C 0.7°F-17.4°C 47% Calm Calm -- 30.29 in1025.7 mb 0.00 in0.0 mm 0.00 in0.0 mm 0.00 in0.0 mm